• Join FlightAware (Why Join?)
  • Login
  • US Flag 
10:12PM EDT


 

Airport Tracker/Info


-or-


 

Live Flight TrackerFlight Track Log ✈ UAL4476 ✈ 11-Apr-2013 ✈ KCLE - KBOS

Flight Track Log - Related Links

Times and Time Zones

All times are in EDT time to prevent confusion due to time zone crossing. See the UAL4476 flight status page for this flight to view local times or setup timezone preferences in your user account.

Time Position Orientation Groundspeed Altitude Reporting Facility
EDT Latitude Longitude Course Direction KTS MPH feet Rate Location/Type
08:56AM 41.4194 -81.8403 27° Northeast 164 189 1,900  Level Cleveland Center
08:57AM 41.4825 -81.7972 27° Northeast 259 298 3,700 1,800 Climbing Cleveland Center
08:57AM 41.5244 -81.7592 34° Northeast 265 305 5,300 2,280 Climbing Cleveland Center
08:58AM 41.5878 -81.6936 38° Northeast 270 311 7,700 2,400 Climbing Cleveland Center
08:59AM 41.6508 -81.6253 39° Northeast 280 322 10,100 1,740 Climbing Cleveland Center
09:00AM 41.7139 -81.5567 39° Northeast 303 349 11,200 1,680 Climbing Cleveland Center
09:01AM 41.7628 -81.4544 57° Northeast 316 364 13,500 1,620 Climbing Cleveland Center
09:02AM 41.7886 -81.3183 76° East 345 397 14,500 900 Climbing Cleveland Center
09:03AM 41.8147 -81.1683 77° East 393 452 15,300 900 Climbing Cleveland Center
09:04AM 41.8425 -81.0125 76° East 423 487 16,400 1,440 Climbing Cleveland Center
09:05AM 41.8700 -80.8425 78° East 428 493 18,200 1,860 Climbing Cleveland Center
09:06AM 41.8933 -80.6919 78° East 421 484 20,200 1,560 Climbing Cleveland Center
09:07AM 41.9203 -80.5356 77° East 416 479 21,400 1,200 Climbing Cleveland Center
09:08AM 41.9453 -80.3767 78° East 426 490 22,600 1,140 Climbing Cleveland Center
09:09AM 41.9719 -80.2144 77° East 434 499 23,700 1,200 Climbing Cleveland Center
09:10AM 41.9983 -80.0494 78° East 439 505 25,000 1,260 Climbing Cleveland Center
09:11AM 42.0225 -79.9039 77° East 439 505 26,300 1,320 Climbing Cleveland Center
09:12AM 42.0486 -79.7444 78° East 439 505 27,700 1,380 Climbing Cleveland Center
09:13AM 42.0472 -79.5822 91° East 433 498 29,100 1,380 Climbing Cleveland Center
09:14AM 42.0356 -79.4231 96° East 423 487 30,500 1,380 Climbing Cleveland Center
09:15AM 42.0233 -79.2667 96° East 423 487 31,900 1,260 Climbing Cleveland Center
09:16AM 42.0339 -79.1072 85° East 423 487 33,100 1,200 Climbing Cleveland Center
09:17AM 42.0672 -78.9525 74° East 423 487 34,300 900 Climbing Cleveland Center
09:18AM 42.0983 -78.7950 75° East 429 494 35,000 300 Climbing Cleveland Center
09:19AM 42.1331 -78.6289 74° East 441 507 35,000  Level Cleveland Center
09:20AM 42.1675 -78.4542 75° East 458 527 35,000  Level Cleveland Center
09:21AM 42.2075 -78.2564 75° East 478 550 35,000  Level Cleveland Center
09:22AM 42.2411 -78.0758 76° East 488 562 35,000  Level Cleveland Center
09:23AM 42.2786 -77.8919 75° East 498 573 35,000  Level Cleveland Center
09:24AM 42.3100 -77.7136 77° East 498 573 35,000  Level Cleveland Center
09:25AM 42.3450 -77.5350 75° East 498 573 35,000  Level Cleveland Center
09:27AM 42.4122 -77.1708 76° East 496 571 35,000  Level Boston Center
09:28AM 42.4425 -76.9931 77° East 496 571 35,000  Level Boston Center
09:30AM 42.4642 -76.8117 81° East 496 571 35,000  Level Boston Center
09:31AM 42.4836 -76.6269 82° East 491 565 35,000  Level Boston Center
09:31AM 42.5028 -76.4425 82° East 491 565 35,000  Level Boston Center
09:32AM 42.5156 -76.2572 85° East 496 571 35,000  Level Boston Center
09:33AM 42.5197 -76.0686 88° East 496 571 35,000  Level Boston Center
09:34AM 42.5253 -75.8831 88° East 496 571 35,000  Level Boston Center
09:35AM 42.5269 -75.6914 89° East 501 577 35,000  Level Boston Center
09:36AM 42.5319 -75.5058 88° East 495 570 35,000  Level Boston Center
09:38AM 42.5347 -75.3200 89° East 495 570 35,000  Level Boston Center
09:38AM 42.5372 -75.1311 89° East 495 570 35,000  Level Boston Center
09:39AM 42.5394 -74.9453 89° East 495 570 35,000  Level Boston Center
09:40AM 42.5433 -74.7594 88° East 495 570 35,000  Level Boston Center
09:41AM 42.5431 -74.5733 90° East 495 570 35,000  Level Boston Center
09:43AM 42.5506 -74.3875 87° East 489 563 35,000  Level Boston Center
09:44AM 42.5494 -74.1986 90° East 497 572 35,000  Level Boston Center
09:45AM 42.5497 -74.0353 90° East 497 572 35,000  Level Boston Center
09:45AM 42.5522 -73.8464 89° East 497 572 35,000  Level Boston Center
09:46AM 42.5522 -73.6575 90° East 497 572 35,000  Level Boston Center
09:47AM 42.5542 -73.4661 89° East 497 572 35,000 -60 Level Boston Center
09:48AM 42.5556 -73.2856 89° East 510 587 34,900 -1,320 Descending Boston Center
09:49AM 42.5531 -73.0544 91° East 516 594 32,500 -2,640 Descending Boston Center
09:50AM 42.5517 -72.8544 90° East 521 600 29,700 -2,880 Descending Boston Center
09:51AM 42.5503 -72.6656 91° East 516 594 26,800 -2,940 Descending Boston Center
09:53AM 42.5483 -72.4794 91° East 504 580 23,800 -3,000 Descending Boston Center
09:54AM 42.5483 -72.2936 90° East 492 566 20,800 -3,000 Descending Boston Center
09:54AM 42.5439 -72.1217 92° East 472 543 17,900 -2,820 Descending Boston Center
09:55AM 42.5347 -71.9497 94° East 461 531 15,300 -2,340 Descending Boston Center
09:57AM 42.5194 -71.7808 97° East 461 531 13,200 -2,160 Descending Boston Center
09:58AM 42.5058 -71.6206 97° East 443 510 11,000 -1,800 Descending Boston Center
09:58AM 42.5000 -71.5667 98° East 416 479 10,900 -900 Descending KA90
09:59AM 42.4833 -71.4167 99° East 406 467 9,900 -960 Descending KA90
10:00AM 42.4667 -71.2833 100° East 340 391 9,100 -1,200 Descending KA90
10:01AM 42.4667 -71.1500 90° East 328 377 7,500 -1,020 Descending KA90
10:02AM 42.4500 -71.0500 103° East 276 318 7,000 -300 Descending KA90
10:03AM 42.4000 -70.9833 135° Southeast 260 299 7,000  Level KA90
10:04AM 42.3333 -70.9500 160° South 265 305 7,000 -540 Level KA90
10:05AM 42.2667 -70.9500 180° South 214 246 5,900 -1,200 Descending KA90
10:06AM 42.2167 -70.9833 206° Southwest 219 252 4,600 -1,320 Descending KA90
10:07AM 42.1500 -71.0000 191° South 219 252 3,500 -840 Descending KA90
10:08AM 42.1500 -71.0667 270° West 180 207 3,000 -240 Descending KA90
10:09AM 42.2000 -71.0833 346° North 167 192 3,000 -240 Level KA90
10:10AM 42.2500 -71.0667 14° North 163 188 2,500 -660 Descending KA90
10:11AM 42.2833 -71.0500 20° North 132 152 1,700 -780 Descending KA90
10:12AM 42.3167 -71.0333 20° North 121 139 1,000 -660 Descending KA90
10:13AM 42.3500 -71.0167 20° North 122 140 400 -600 Descending KA90